PRNPB SBLJ-SBFL
Flight info
| Callsign | PRNPB |
|---|---|
| Flight time | N/A |
| Altitude | FL050 |
| Route | DCT SBFL |
| Aircraft | B429/L-S/N |
Departure
| Time | 2026-04-11 23:04 |
|---|---|
| Airport | Lages Airport (SBLJ) |
Arrival
| Time | N/A |
|---|---|
| Airport | Hercílio Luz International Airport (SBFL) |
| Time | Latitude | Longitude | Altitude | Speed | Heading |
|---|---|---|---|---|---|
| 2026-04-11 22:53 | -27.78252 | -50.27977 | 3068 ft | 0 kts | 56° |
| 2026-04-11 23:01 | -27.78257 | -50.27986 | 3075 ft | 3 kts | 56° |
| 2026-04-11 23:01 | -27.78251 | -50.27992 | 3073 ft | 1 kts | 25° |
| 2026-04-11 23:01 | -27.78244 | -50.27993 | 3069 ft | 1 kts | 353° |
| 2026-04-11 23:01 | -27.78238 | -50.27995 | 3068 ft | 2 kts | 323° |
| 2026-04-11 23:02 | -27.78233 | -50.28000 | 3068 ft | 1 kts | 283° |
| 2026-04-11 23:02 | -27.78241 | -50.28017 | 3068 ft | 3 kts | 245° |
| 2026-04-11 23:02 | -27.78260 | -50.28051 | 3073 ft | 6 kts | 244° |
| 2026-04-11 23:02 | -27.78272 | -50.28075 | 3074 ft | 1 kts | 242° |
| 2026-04-11 23:03 | -27.78275 | -50.28080 | 3080 ft | 2 kts | 242° |
| 2026-04-11 23:03 | -27.78314 | -50.28173 | 3157 ft | 36 kts | 233° |
| 2026-04-11 23:03 | -27.78542 | -50.28629 | 3303 ft | 97 kts | 240° |
| 2026-04-11 23:03 | -27.78913 | -50.29434 | 3288 ft | 125 kts | 242° |
| 2026-04-11 23:04 | -27.79356 | -50.30276 | 3397 ft | 126 kts | 228° |
| 2026-04-11 23:04 | -27.80111 | -50.30652 | 3363 ft | 114 kts | 176° |
| 2026-04-11 23:04 | -27.80692 | -50.30263 | 3555 ft | 90 kts | 118° |
| 2026-04-11 23:04 | -27.80679 | -50.29646 | 3861 ft | 77 kts | 70° |
| 2026-04-11 23:05 | -27.80507 | -50.29097 | 4160 ft | 73 kts | 74° |
| 2026-04-11 23:05 | -27.80363 | -50.28552 | 4430 ft | 72 kts | 73° |
| 2026-04-11 23:05 | -27.80231 | -50.28003 | 4685 ft | 73 kts | 73° |
| 2026-04-11 23:05 | -27.80104 | -50.27441 | 4926 ft | 76 kts | 73° |
| 2026-04-11 23:06 | -27.79965 | -50.26812 | 5042 ft | 92 kts | 73° |
| 2026-04-11 23:06 | -27.79770 | -50.26038 | 5105 ft | 116 kts | 71° |
| 2026-04-11 23:06 | -27.79502 | -50.25076 | 5008 ft | 135 kts | 71° |
| 2026-04-11 23:06 | -27.79248 | -50.24069 | 4923 ft | 131 kts | 73° |
| 2026-04-11 23:07 | -27.79035 | -50.23091 | 4961 ft | 128 kts | 75° |
| 2026-04-11 23:07 | -27.78845 | -50.22104 | 5008 ft | 130 kts | 76° |
| 2026-04-11 23:07 | -27.78672 | -50.21093 | 5005 ft | 131 kts | 77° |
| 2026-04-11 23:07 | -27.78517 | -50.20080 | 4997 ft | 131 kts | 78° |
| 2026-04-11 23:08 | -27.78375 | -50.19064 | 4996 ft | 131 kts | 79° |
| 2026-04-11 23:08 | -27.78246 | -50.18047 | 4997 ft | 131 kts | 80° |
| 2026-04-11 23:08 | -27.78128 | -50.17050 | 4997 ft | 131 kts | 80° |
| 2026-04-11 23:08 | -27.78012 | -50.16001 | 4997 ft | 131 kts | 81° |
| 2026-04-11 23:09 | -27.77906 | -50.14982 | 4997 ft | 131 kts | 81° |
| 2026-04-11 23:09 | -27.77805 | -50.13959 | 4999 ft | 131 kts | 81° |
| 2026-04-11 23:09 | -27.77708 | -50.12932 | 5000 ft | 132 kts | 82° |
| 2026-04-11 23:09 | -27.77618 | -50.11906 | 5000 ft | 132 kts | 82° |
| 2026-04-11 23:10 | -27.77537 | -50.10878 | 5000 ft | 132 kts | 83° |
| 2026-04-11 23:10 | -27.77462 | -50.09850 | 5000 ft | 132 kts | 83° |
| 2026-04-11 23:10 | -27.77391 | -50.08821 | 5000 ft | 132 kts | 83° |
| 2026-04-11 23:10 | -27.77323 | -50.07791 | 5000 ft | 132 kts | 83° |
| 2026-04-11 23:11 | -27.77258 | -50.06760 | 5000 ft | 132 kts | 83° |
| 2026-04-11 23:11 | -27.77193 | -50.05731 | 5000 ft | 132 kts | 83° |
| 2026-04-11 23:11 | -27.77129 | -50.04699 | 5000 ft | 132 kts | 84° |
| 2026-04-11 23:11 | -27.77066 | -50.03670 | 5000 ft | 132 kts | 84° |
| 2026-04-11 23:12 | -27.77003 | -50.02638 | 5000 ft | 132 kts | 84° |
| 2026-04-11 23:12 | -27.76941 | -50.01607 | 5000 ft | 132 kts | 84° |
| 2026-04-11 23:12 | -27.76878 | -50.00579 | 5000 ft | 132 kts | 84° |
| 2026-04-11 23:12 | -27.76816 | -49.99546 | 5000 ft | 132 kts | 84° |
| 2026-04-11 23:13 | -27.76753 | -49.98517 | 5000 ft | 132 kts | 84° |
| 2026-04-11 23:13 | -27.76691 | -49.97482 | 5000 ft | 132 kts | 84° |
| 2026-04-11 23:13 | -27.76628 | -49.96451 | 5000 ft | 132 kts | 84° |
| 2026-04-11 23:13 | -27.76565 | -49.95419 | 5000 ft | 132 kts | 84° |
| 2026-04-11 23:14 | -27.76503 | -49.94390 | 5000 ft | 132 kts | 84° |
| 2026-04-11 23:14 | -27.76440 | -49.93367 | 5000 ft | 132 kts | 84° |
| 2026-04-11 23:14 | -27.76377 | -49.92328 | 5000 ft | 132 kts | 84° |
| 2026-04-11 23:14 | -27.76314 | -49.91298 | 5000 ft | 132 kts | 84° |
| 2026-04-11 23:15 | -27.76251 | -49.90266 | 5000 ft | 132 kts | 84° |
| 2026-04-11 23:15 | -27.76188 | -49.89235 | 5000 ft | 132 kts | 84° |
| 2026-04-11 23:15 | -27.76125 | -49.88201 | 5000 ft | 132 kts | 84° |
| 2026-04-11 23:15 | -27.76062 | -49.87168 | 5000 ft | 132 kts | 84° |
| 2026-04-11 23:16 | -27.75998 | -49.86134 | 5000 ft | 132 kts | 84° |
| 2026-04-11 23:16 | -27.75935 | -49.85103 | 5000 ft | 132 kts | 84° |
| 2026-04-11 23:16 | -27.75871 | -49.84073 | 5000 ft | 132 kts | 84° |
| 2026-04-11 23:16 | -27.75808 | -49.83038 | 5002 ft | 131 kts | 84° |
| 2026-04-11 23:17 | -27.75749 | -49.82054 | 5220 ft | 121 kts | 83° |
| 2026-04-11 23:17 | -27.75698 | -49.81125 | 5566 ft | 117 kts | 83° |
| 2026-04-11 23:17 | -27.75646 | -49.80207 | 5901 ft | 120 kts | 83° |
| 2026-04-11 23:17 | -27.75585 | -49.79223 | 6027 ft | 132 kts | 83° |
| 2026-04-11 23:18 | -27.75515 | -49.78169 | 6006 ft | 137 kts | 83° |
| 2026-04-11 23:18 | -27.75444 | -49.77100 | 5991 ft | 136 kts | 83° |
| 2026-04-11 23:18 | -27.75380 | -49.76088 | 6217 ft | 125 kts | 84° |
| 2026-04-11 23:18 | -27.75319 | -49.75136 | 6563 ft | 120 kts | 84° |
| 2026-04-11 23:19 | -27.75253 | -49.74205 | 6901 ft | 121 kts | 84° |
| 2026-04-11 23:19 | -27.75180 | -49.73217 | 7031 ft | 133 kts | 84° |
| 2026-04-11 23:19 | -27.75104 | -49.72154 | 7009 ft | 138 kts | 84° |
| 2026-04-11 23:19 | -27.75029 | -49.71074 | 6988 ft | 138 kts | 84° |
| 2026-04-11 23:20 | -27.74957 | -49.69994 | 6992 ft | 138 kts | 84° |
| 2026-04-11 23:20 | -27.74886 | -49.68921 | 7006 ft | 138 kts | 84° |
| 2026-04-11 23:20 | -27.74817 | -49.67850 | 6993 ft | 130 kts | 84° |
| 2026-04-11 23:20 | -27.74758 | -49.66903 | 6985 ft | 123 kts | 84° |
| 2026-04-11 23:21 | -27.74690 | -49.65838 | 6951 ft | 147 kts | 84° |
| 2026-04-11 23:21 | -27.74611 | -49.64654 | 6865 ft | 153 kts | 84° |
| 2026-04-11 23:21 | -27.74531 | -49.63456 | 6775 ft | 154 kts | 84° |
| 2026-04-11 23:21 | -27.74452 | -49.62242 | 6683 ft | 154 kts | 84° |
| 2026-04-11 23:22 | -27.74375 | -49.61035 | 6595 ft | 154 kts | 84° |
| 2026-04-11 23:22 | -27.74301 | -49.59835 | 6514 ft | 154 kts | 84° |
| 2026-04-11 23:22 | -27.74228 | -49.58633 | 6441 ft | 154 kts | 84° |
| 2026-04-11 23:22 | -27.74156 | -49.57432 | 6375 ft | 153 kts | 84° |
| 2026-04-11 23:23 | -27.74085 | -49.56238 | 6316 ft | 153 kts | 84° |
| 2026-04-11 23:23 | -27.74013 | -49.55041 | 6262 ft | 153 kts | 84° |
| 2026-04-11 23:23 | -27.73941 | -49.53851 | 6219 ft | 151 kts | 84° |
| 2026-04-11 23:23 | -27.73874 | -49.52727 | 6459 ft | 137 kts | 84° |
| 2026-04-11 23:24 | -27.73807 | -49.51685 | 6883 ft | 134 kts | 84° |
| 2026-04-11 23:24 | -27.73731 | -49.50596 | 7038 ft | 145 kts | 84° |
| 2026-04-11 23:24 | -27.73651 | -49.49436 | 7041 ft | 151 kts | 84° |
| 2026-04-11 23:24 | -27.73571 | -49.48248 | 7017 ft | 152 kts | 84° |
| 2026-04-11 23:25 | -27.73491 | -49.47063 | 7002 ft | 152 kts | 84° |
| 2026-04-11 23:25 | -27.73413 | -49.45875 | 6998 ft | 152 kts | 84° |
| 2026-04-11 23:25 | -27.73335 | -49.44690 | 6998 ft | 152 kts | 84° |
| 2026-04-11 23:25 | -27.73258 | -49.43507 | 7000 ft | 152 kts | 84° |
| 2026-04-11 23:26 | -27.73181 | -49.42323 | 7000 ft | 152 kts | 84° |
| 2026-04-11 23:26 | -27.73104 | -49.41135 | 7000 ft | 152 kts | 84° |
| 2026-04-11 23:26 | -27.73027 | -49.39953 | 7000 ft | 152 kts | 84° |
| 2026-04-11 23:26 | -27.72950 | -49.38767 | 7000 ft | 152 kts | 84° |